sensor_id;sensor_type;location;lat;lon;timestamp;temperature;humidity
83683;DHT22;73663;51.298;5.802;2023-11-22T00:03:37;9.20;58.50
83683;DHT22;73663;51.298;5.802;2023-11-22T00:08:37;9.20;58.50
83683;DHT22;73663;51.298;5.802;2023-11-22T00:13:38;9.00;58.40
83683;DHT22;73663;51.298;5.802;2023-11-22T00:18:38;9.00;58.50
83683;DHT22;73663;51.298;5.802;2023-11-22T00:23:39;8.90;58.50
83683;DHT22;73663;51.298;5.802;2023-11-22T00:28:39;8.90;58.50
83683;DHT22;73663;51.298;5.802;2023-11-22T00:33:40;8.90;58.50
83683;DHT22;73663;51.298;5.802;2023-11-22T00:38:40;8.80;58.50
83683;DHT22;73663;51.298;5.802;2023-11-22T00:43:41;8.80;58.50
83683;DHT22;73663;51.298;5.802;2023-11-22T00:48:42;8.70;58.40
83683;DHT22;73663;51.298;5.802;2023-11-22T00:53:43;8.60;58.40
83683;DHT22;73663;51.298;5.802;2023-11-22T00:58:44;8.60;58.40
83683;DHT22;73663;51.298;5.802;2023-11-22T01:03:44;8.50;58.40
83683;DHT22;73663;51.298;5.802;2023-11-22T01:08:45;8.50;58.30
83683;DHT22;73663;51.298;5.802;2023-11-22T01:13:52;8.50;58.40
83683;DHT22;73663;51.298;5.802;2023-11-22T01:18:52;8.40;58.30
83683;DHT22;73663;51.298;5.802;2023-11-22T01:23:53;8.40;58.40
83683;DHT22;73663;51.298;5.802;2023-11-22T01:28:53;8.40;58.50
83683;DHT22;73663;51.298;5.802;2023-11-22T01:33:54;8.40;58.60
83683;DHT22;73663;51.298;5.802;2023-11-22T01:39:11;8.60;58.70
83683;DHT22;73663;51.298;5.802;2023-11-22T01:44:13;8.80;58.70
83683;DHT22;73663;51.298;5.802;2023-11-22T01:49:14;9.00;58.70
83683;DHT22;73663;51.298;5.802;2023-11-22T01:54:15;9.20;58.70
83683;DHT22;73663;51.298;5.802;2023-11-22T01:59:18;9.30;58.70
83683;DHT22;73663;51.298;5.802;2023-11-22T02:04:18;9.30;58.70
83683;DHT22;73663;51.298;5.802;2023-11-22T02:09:19;9.30;58.60
83683;DHT22;73663;51.298;5.802;2023-11-22T02:14:20;9.20;58.60
83683;DHT22;73663;51.298;5.802;2023-11-22T02:19:21;9.20;58.70
83683;DHT22;73663;51.298;5.802;2023-11-22T02:24:21;9.20;58.60
83683;DHT22;73663;51.298;5.802;2023-11-22T02:29:22;9.20;58.50
83683;DHT22;73663;51.298;5.802;2023-11-22T02:34:22;9.00;58.50
83683;DHT22;73663;51.298;5.802;2023-11-22T02:39:41;8.90;58.50
83683;DHT22;73663;51.298;5.802;2023-11-22T02:44:43;8.90;58.60
83683;DHT22;73663;51.298;5.802;2023-11-22T02:49:44;9.00;58.60
83683;DHT22;73663;51.298;5.802;2023-11-22T02:54:44;9.00;58.70
83683;DHT22;73663;51.298;5.802;2023-11-22T02:59:49;9.20;58.70
83683;DHT22;73663;51.298;5.802;2023-11-22T03:04:52;9.40;58.80
83683;DHT22;73663;51.298;5.802;2023-11-22T03:09:59;9.40;58.80
83683;DHT22;73663;51.298;5.802;2023-11-22T03:15:01;9.60;58.80
83683;DHT22;73663;51.298;5.802;2023-11-22T03:20:02;9.70;58.90
83683;DHT22;73663;51.298;5.802;2023-11-22T03:25:03;9.80;58.90
83683;DHT22;73663;51.298;5.802;2023-11-22T03:30:05;9.80;58.90
83683;DHT22;73663;51.298;5.802;2023-11-22T03:35:07;9.90;58.90
83683;DHT22;73663;51.298;5.802;2023-11-22T03:40:08;10.00;58.90
83683;DHT22;73663;51.298;5.802;2023-11-22T03:45:09;10.00;58.90
83683;DHT22;73663;51.298;5.802;2023-11-22T03:50:10;10.00;58.90
83683;DHT22;73663;51.298;5.802;2023-11-22T03:55:10;10.00;58.90
83683;DHT22;73663;51.298;5.802;2023-11-22T04:00:23;10.00;58.90
83683;DHT22;73663;51.298;5.802;2023-11-22T04:05:24;10.00;58.90
83683;DHT22;73663;51.298;5.802;2023-11-22T04:10:25;10.10;58.90
83683;DHT22;73663;51.298;5.802;2023-11-22T04:15:25;10.10;58.90
83683;DHT22;73663;51.298;5.802;2023-11-22T04:20:27;10.10;58.90
83683;DHT22;73663;51.298;5.802;2023-11-22T04:25:27;10.10;58.90
83683;DHT22;73663;51.298;5.802;2023-11-22T04:30:29;10.20;59.00
83683;DHT22;73663;51.298;5.802;2023-11-22T04:35:30;10.20;59.00
83683;DHT22;73663;51.298;5.802;2023-11-22T04:40:34;10.30;58.90
83683;DHT22;73663;51.298;5.802;2023-11-22T04:45:35;10.30;58.90
83683;DHT22;73663;51.298;5.802;2023-11-22T04:50:35;10.30;59.00
83683;DHT22;73663;51.298;5.802;2023-11-22T04:55:36;10.30;59.00
83683;DHT22;73663;51.298;5.802;2023-11-22T05:00:37;10.40;59.00
83683;DHT22;73663;51.298;5.802;2023-11-22T05:05:37;10.40;59.00
83683;DHT22;73663;51.298;5.802;2023-11-22T05:10:37;10.50;59.00
83683;DHT22;73663;51.298;5.802;2023-11-22T05:15:38;10.50;59.00
83683;DHT22;73663;51.298;5.802;2023-11-22T05:20:38;10.60;59.00
83683;DHT22;73663;51.298;5.802;2023-11-22T05:25:39;10.60;59.00
83683;DHT22;73663;51.298;5.802;2023-11-22T05:30:40;10.70;59.10
83683;DHT22;73663;51.298;5.802;2023-11-22T05:35:40;10.70;59.00
83683;DHT22;73663;51.298;5.802;2023-11-22T05:40:41;10.70;59.00
83683;DHT22;73663;51.298;5.802;2023-11-22T05:45:43;10.70;59.00
83683;DHT22;73663;51.298;5.802;2023-11-22T05:50:44;10.70;59.10
83683;DHT22;73663;51.298;5.802;2023-11-22T05:55:49;10.70;59.00
83683;DHT22;73663;51.298;5.802;2023-11-22T06:00:49;10.70;59.00
83683;DHT22;73663;51.298;5.802;2023-11-22T06:05:56;10.70;59.10
83683;DHT22;73663;51.298;5.802;2023-11-22T06:10:57;10.70;59.00
83683;DHT22;73663;51.298;5.802;2023-11-22T06:15:59;10.70;59.00
83683;DHT22;73663;51.298;5.802;2023-11-22T06:21:00;10.70;59.00
83683;DHT22;73663;51.298;5.802;2023-11-22T06:26:01;10.80;59.00
83683;DHT22;73663;51.298;5.802;2023-11-22T06:31:02;10.70;59.00
83683;DHT22;73663;51.298;5.802;2023-11-22T06:36:03;10.70;59.00
83683;DHT22;73663;51.298;5.802;2023-11-22T06:41:04;10.70;58.90
83683;DHT22;73663;51.298;5.802;2023-11-22T06:46:04;10.60;58.90
83683;DHT22;73663;51.298;5.802;2023-11-22T06:51:06;10.50;58.90
83683;DHT22;73663;51.298;5.802;2023-11-22T06:56:07;10.40;58.80
83683;DHT22;73663;51.298;5.802;2023-11-22T07:01:07;10.30;58.90
83683;DHT22;73663;51.298;5.802;2023-11-22T07:06:09;10.20;58.80
83683;DHT22;73663;51.298;5.802;2023-11-22T07:11:10;10.20;58.90
83683;DHT22;73663;51.298;5.802;2023-11-22T07:16:11;10.20;58.90
83683;DHT22;73663;51.298;5.802;2023-11-22T07:21:11;10.30;59.00
83683;DHT22;73663;51.298;5.802;2023-11-22T07:26:12;10.40;59.00
83683;DHT22;73663;51.298;5.802;2023-11-22T07:31:14;10.40;59.00
83683;DHT22;73663;51.298;5.802;2023-11-22T07:36:14;10.50;59.00
83683;DHT22;73663;51.298;5.802;2023-11-22T07:41:15;10.70;59.10
83683;DHT22;73663;51.298;5.802;2023-11-22T07:46:16;10.80;59.10
83683;DHT22;73663;51.298;5.802;2023-11-22T07:51:17;10.90;59.10
83683;DHT22;73663;51.298;5.802;2023-11-22T07:56:18;11.10;59.20
83683;DHT22;73663;51.298;5.802;2023-11-22T08:01:19;11.20;59.20
83683;DHT22;73663;51.298;5.802;2023-11-22T08:06:19;11.40;59.20
83683;DHT22;73663;51.298;5.802;2023-11-22T08:11:21;11.50;59.20
83683;DHT22;73663;51.298;5.802;2023-11-22T08:16:21;11.50;59.20
83683;DHT22;73663;51.298;5.802;2023-11-22T08:21:22;11.50;59.10
83683;DHT22;73663;51.298;5.802;2023-11-22T08:26:23;11.50;58.90
83683;DHT22;73663;51.298;5.802;2023-11-22T08:31:32;11.30;59.00
83683;DHT22;73663;51.298;5.802;2023-11-22T08:36:34;11.30;59.10
83683;DHT22;73663;51.298;5.802;2023-11-22T08:41:35;11.40;59.10
83683;DHT22;73663;51.298;5.802;2023-11-22T08:46:35;11.60;59.20
83683;DHT22;73663;51.298;5.802;2023-11-22T08:51:36;11.90;59.30
83683;DHT22;73663;51.298;5.802;2023-11-22T08:56:36;12.20;59.30
83683;DHT22;73663;51.298;5.802;2023-11-22T09:01:37;12.40;59.10
83683;DHT22;73663;51.298;5.802;2023-11-22T09:06:38;12.40;59.00
83683;DHT22;73663;51.298;5.802;2023-11-22T09:11:44;12.50;59.00
83683;DHT22;73663;51.298;5.802;2023-11-22T09:16:46;12.40;59.00
83683;DHT22;73663;51.298;5.802;2023-11-22T09:21:53;12.30;58.90
83683;DHT22;73663;51.298;5.802;2023-11-22T09:26:53;12.20;58.90
83683;DHT22;73663;51.298;5.802;2023-11-22T09:31:54;12.30;59.20
83683;DHT22;73663;51.298;5.802;2023-11-22T09:36:55;12.60;59.10
83683;DHT22;73663;51.298;5.802;2023-11-22T09:41:55;12.90;59.10
83683;DHT22;73663;51.298;5.802;2023-11-22T09:46:56;13.10;59.10
83683;DHT22;73663;51.298;5.802;2023-11-22T09:52:02;13.20;58.90
83683;DHT22;73663;51.298;5.802;2023-11-22T09:57:04;13.30;58.90
83683;DHT22;73663;51.298;5.802;2023-11-22T10:02:09;13.40;58.90
83683;DHT22;73663;51.298;5.802;2023-11-22T10:07:10;13.30;58.80
83683;DHT22;73663;51.298;5.802;2023-11-22T10:12:12;13.30;58.70
83683;DHT22;73663;51.298;5.802;2023-11-22T10:17:12;13.30;58.90
83683;DHT22;73663;51.298;5.802;2023-11-22T10:22:15;13.60;59.10
83683;DHT22;73663;51.298;5.802;2023-11-22T10:27:17;14.30;59.00
83683;DHT22;73663;51.298;5.802;2023-11-22T10:32:18;14.90;58.70
83683;DHT22;73663;51.298;5.802;2023-11-22T10:37:19;15.10;58.60
83683;DHT22;73663;51.298;5.802;2023-11-22T10:42:21;15.00;58.30
83683;DHT22;73663;51.298;5.802;2023-11-22T10:47:24;14.80;58.30
83683;DHT22;73663;51.298;5.802;2023-11-22T10:52:27;14.70;58.40
83683;DHT22;73663;51.298;5.802;2023-11-22T10:57:39;14.90;58.40
83683;DHT22;73663;51.298;5.802;2023-11-22T11:02:45;15.00;58.00
83683;DHT22;73663;51.298;5.802;2023-11-22T11:08:16;14.80;57.80
83683;DHT22;73663;51.298;5.802;2023-11-22T11:13:18;14.70;58.00
83683;DHT22;73663;51.298;5.802;2023-11-22T11:18:19;15.20;58.30
83683;DHT22;73663;51.298;5.802;2023-11-22T11:23:22;15.80;58.20
83683;DHT22;73663;51.298;5.802;2023-11-22T11:28:24;15.80;57.90
83683;DHT22;73663;51.298;5.802;2023-11-22T11:33:33;15.80;57.90
83683;DHT22;73663;51.298;5.802;2023-11-22T11:38:37;15.80;57.80
83683;DHT22;73663;51.298;5.802;2023-11-22T11:48:51;15.80;57.80
83683;DHT22;73663;51.298;5.802;2023-11-22T11:53:53;15.90;57.40
83683;DHT22;73663;51.298;5.802;2023-11-22T11:58:56;15.80;57.60
83683;DHT22;73663;51.298;5.802;2023-11-22T12:04:02;15.80;57.60
83683;DHT22;73663;51.298;5.802;2023-11-22T12:09:03;16.00;57.60
83683;DHT22;73663;51.298;5.802;2023-11-22T12:14:04;16.30;57.50
83683;DHT22;73663;51.298;5.802;2023-11-22T12:19:04;16.10;57.00
83683;DHT22;73663;51.298;5.802;2023-11-22T12:24:06;15.80;57.00
83683;DHT22;73663;51.298;5.802;2023-11-22T12:29:07;15.30;57.00
83683;DHT22;73663;51.298;5.802;2023-11-22T12:34:09;14.90;57.00
83683;DHT22;73663;51.298;5.802;2023-11-22T12:39:11;14.80;57.20
83683;DHT22;73663;51.298;5.802;2023-11-22T12:44:18;15.00;57.50
83683;DHT22;73663;51.298;5.802;2023-11-22T12:49:18;15.60;57.60
83683;DHT22;73663;51.298;5.802;2023-11-22T12:54:19;16.10;57.40
83683;DHT22;73663;51.298;5.802;2023-11-22T12:59:21;16.50;57.10
83683;DHT22;73663;51.298;5.802;2023-11-22T13:04:22;16.60;56.90
83683;DHT22;73663;51.298;5.802;2023-11-22T13:09:22;16.50;56.80
83683;DHT22;73663;51.298;5.802;2023-11-22T13:14:23;16.40;56.60
83683;DHT22;73663;51.298;5.802;2023-11-22T13:19:23;16.10;56.60
83683;DHT22;73663;51.298;5.802;2023-11-22T13:24:25;15.60;56.40
83683;DHT22;73663;51.298;5.802;2023-11-22T13:29:26;15.10;56.30
83683;DHT22;73663;51.298;5.802;2023-11-22T13:34:26;14.80;56.50
83683;DHT22;73663;51.298;5.802;2023-11-22T13:39:27;14.50;56.40
83683;DHT22;73663;51.298;5.802;2023-11-22T13:44:27;14.30;56.50
83683;DHT22;73663;51.298;5.802;2023-11-22T13:49:28;14.10;56.50
83683;DHT22;73663;51.298;5.802;2023-11-22T13:54:28;13.90;56.40
83683;DHT22;73663;51.298;5.802;2023-11-22T13:59:29;13.80;56.50
83683;DHT22;73663;51.298;5.802;2023-11-22T14:04:29;13.70;56.40
83683;DHT22;73663;51.298;5.802;2023-11-22T14:09:30;13.70;56.60
83683;DHT22;73663;51.298;5.802;2023-11-22T14:14:31;13.80;56.50
83683;DHT22;73663;51.298;5.802;2023-11-22T14:19:32;13.70;56.40
83683;DHT22;73663;51.298;5.802;2023-11-22T14:24:32;13.50;56.30
83683;DHT22;73663;51.298;5.802;2023-11-22T14:29:37;13.30;56.20
83683;DHT22;73663;51.298;5.802;2023-11-22T14:34:38;12.90;56.20
83683;DHT22;73663;51.298;5.802;2023-11-22T14:39:39;12.70;56.40
83683;DHT22;73663;51.298;5.802;2023-11-22T14:44:40;12.50;56.40
83683;DHT22;73663;51.298;5.802;2023-11-22T14:49:41;12.50;56.40
83683;DHT22;73663;51.298;5.802;2023-11-22T14:54:42;12.40;56.40
83683;DHT22;73663;51.298;5.802;2023-11-22T14:59:44;12.30;56.40
83683;DHT22;73663;51.298;5.802;2023-11-22T15:04:47;12.20;56.50
83683;DHT22;73663;51.298;5.802;2023-11-22T15:09:54;12.20;56.50
83683;DHT22;73663;51.298;5.802;2023-11-22T15:14:55;12.10;56.50
83683;DHT22;73663;51.298;5.802;2023-11-22T15:19:55;12.00;56.50
83683;DHT22;73663;51.298;5.802;2023-11-22T15:24:56;11.90;56.50
83683;DHT22;73663;51.298;5.802;2023-11-22T15:29:56;11.90;56.50
83683;DHT22;73663;51.298;5.802;2023-11-22T15:34:59;11.90;56.50
83683;DHT22;73663;51.298;5.802;2023-11-22T15:40:00;11.90;56.50
83683;DHT22;73663;51.298;5.802;2023-11-22T15:45:01;11.80;56.50
83683;DHT22;73663;51.298;5.802;2023-11-22T15:50:01;11.70;56.60
83683;DHT22;73663;51.298;5.802;2023-11-22T15:55:02;11.70;56.60
83683;DHT22;73663;51.298;5.802;2023-11-22T16:00:04;11.70;56.60
83683;DHT22;73663;51.298;5.802;2023-11-22T16:05:10;11.70;56.60
83683;DHT22;73663;51.298;5.802;2023-11-22T16:10:13;11.70;56.60
83683;DHT22;73663;51.298;5.802;2023-11-22T16:15:13;11.70;56.60
83683;DHT22;73663;51.298;5.802;2023-11-22T16:20:15;11.50;56.60
83683;DHT22;73663;51.298;5.802;2023-11-22T16:25:16;11.50;56.70
83683;DHT22;73663;51.298;5.802;2023-11-22T16:30:22;11.50;56.60
83683;DHT22;73663;51.298;5.802;2023-11-22T16:35:23;11.50;56.70
83683;DHT22;73663;51.298;5.802;2023-11-22T16:40:24;11.50;56.70
83683;DHT22;73663;51.298;5.802;2023-11-22T16:45:24;11.50;56.70
83683;DHT22;73663;51.298;5.802;2023-11-22T16:50:28;11.60;56.70
83683;DHT22;73663;51.298;5.802;2023-11-22T16:55:28;11.60;56.80
83683;DHT22;73663;51.298;5.802;2023-11-22T17:00:29;11.70;56.80
83683;DHT22;73663;51.298;5.802;2023-11-22T17:05:36;11.70;56.80
83683;DHT22;73663;51.298;5.802;2023-11-22T17:10:37;11.70;56.80
83683;DHT22;73663;51.298;5.802;2023-11-22T17:15:37;11.70;56.80
83683;DHT22;73663;51.298;5.802;2023-11-22T17:20:38;11.70;56.80
83683;DHT22;73663;51.298;5.802;2023-11-22T17:25:38;11.70;56.80
83683;DHT22;73663;51.298;5.802;2023-11-22T17:30:39;11.70;56.80
83683;DHT22;73663;51.298;5.802;2023-11-22T17:35:39;11.70;56.70
83683;DHT22;73663;51.298;5.802;2023-11-22T17:40:40;11.70;56.80
83683;DHT22;73663;51.298;5.802;2023-11-22T17:45:40;11.60;56.80
83683;DHT22;73663;51.298;5.802;2023-11-22T17:50:41;11.50;56.80
83683;DHT22;73663;51.298;5.802;2023-11-22T17:55:42;11.50;56.80
83683;DHT22;73663;51.298;5.802;2023-11-22T18:00:43;11.50;56.80
83683;DHT22;73663;51.298;5.802;2023-11-22T18:05:43;11.50;56.80
83683;DHT22;73663;51.298;5.802;2023-11-22T18:10:44;11.50;56.80
83683;DHT22;73663;51.298;5.802;2023-11-22T18:15:44;11.50;56.80
83683;DHT22;73663;51.298;5.802;2023-11-22T18:20:45;11.50;56.80
83683;DHT22;73663;51.298;5.802;2023-11-22T18:25:45;11.40;56.80
83683;DHT22;73663;51.298;5.802;2023-11-22T18:30:46;11.30;56.80
83683;DHT22;73663;51.298;5.802;2023-11-22T18:35:47;11.30;56.80
83683;DHT22;73663;51.298;5.802;2023-11-22T18:40:47;11.30;56.90
83683;DHT22;73663;51.298;5.802;2023-11-22T18:45:48;11.20;56.80
83683;DHT22;73663;51.298;5.802;2023-11-22T18:50:48;11.30;56.90
83683;DHT22;73663;51.298;5.802;2023-11-22T18:55:49;11.20;56.80
83683;DHT22;73663;51.298;5.802;2023-11-22T19:00:50;11.10;56.80
83683;DHT22;73663;51.298;5.802;2023-11-22T19:05:50;11.10;56.90
83683;DHT22;73663;51.298;5.802;2023-11-22T19:10:54;11.10;56.90
83683;DHT22;73663;51.298;5.802;2023-11-22T19:15:55;11.10;56.90
83683;DHT22;73663;51.298;5.802;2023-11-22T19:20:58;11.10;56.90
83683;DHT22;73663;51.298;5.802;2023-11-22T19:26:03;11.10;57.00
83683;DHT22;73663;51.298;5.802;2023-11-22T19:31:08;11.10;57.00
83683;DHT22;73663;51.298;5.802;2023-11-22T19:36:18;11.10;57.00
83683;DHT22;73663;51.298;5.802;2023-11-22T19:41:21;11.10;57.00
83683;DHT22;73663;51.298;5.802;2023-11-22T19:46:22;11.10;57.00
83683;DHT22;73663;51.298;5.802;2023-11-22T19:51:23;11.10;57.00
83683;DHT22;73663;51.298;5.802;2023-11-22T19:56:27;11.10;57.00
83683;DHT22;73663;51.298;5.802;2023-11-22T20:01:28;11.10;57.00
83683;DHT22;73663;51.298;5.802;2023-11-22T20:06:29;11.00;57.00
83683;DHT22;73663;51.298;5.802;2023-11-22T20:11:36;11.00;57.00
83683;DHT22;73663;51.298;5.802;2023-11-22T20:16:37;10.90;57.00
83683;DHT22;73663;51.298;5.802;2023-11-22T20:21:37;10.90;57.00
83683;DHT22;73663;51.298;5.802;2023-11-22T20:26:43;11.00;57.10
83683;DHT22;73663;51.298;5.802;2023-11-22T20:31:50;11.00;57.00
83683;DHT22;73663;51.298;5.802;2023-11-22T20:36:51;11.00;57.00
83683;DHT22;73663;51.298;5.802;2023-11-22T20:41:51;10.90;57.00
83683;DHT22;73663;51.298;5.802;2023-11-22T20:46:52;10.90;57.10
83683;DHT22;73663;51.298;5.802;2023-11-22T20:51:53;10.90;57.20
83683;DHT22;73663;51.298;5.802;2023-11-22T20:56:53;11.10;57.20
83683;DHT22;73663;51.298;5.802;2023-11-22T21:01:54;11.10;57.30
83683;DHT22;73663;51.298;5.802;2023-11-22T21:06:54;11.30;57.20
83683;DHT22;73663;51.298;5.802;2023-11-22T21:11:55;11.40;57.30
83683;DHT22;73663;51.298;5.802;2023-11-22T21:16:56;11.50;57.30
83683;DHT22;73663;51.298;5.802;2023-11-22T21:21:59;11.50;57.20
83683;DHT22;73663;51.298;5.802;2023-11-22T21:26:59;11.50;57.20
83683;DHT22;73663;51.298;5.802;2023-11-22T21:32:00;11.50;57.20
83683;DHT22;73663;51.298;5.802;2023-11-22T21:37:00;11.40;57.30
83683;DHT22;73663;51.298;5.802;2023-11-22T21:42:03;11.40;57.30
83683;DHT22;73663;51.298;5.802;2023-11-22T21:47:04;11.50;57.30
83683;DHT22;73663;51.298;5.802;2023-11-22T21:52:05;11.70;57.30
83683;DHT22;73663;51.298;5.802;2023-11-22T21:57:06;11.80;57.30
83683;DHT22;73663;51.298;5.802;2023-11-22T22:02:06;11.90;57.40
83683;DHT22;73663;51.298;5.802;2023-11-22T22:07:07;11.90;57.40
83683;DHT22;73663;51.298;5.802;2023-11-22T22:12:07;12.00;57.40
83683;DHT22;73663;51.298;5.802;2023-11-22T22:17:08;12.10;57.40
83683;DHT22;73663;51.298;5.802;2023-11-22T22:22:09;12.10;57.40
83683;DHT22;73663;51.298;5.802;2023-11-22T22:27:10;12.20;57.40
83683;DHT22;73663;51.298;5.802;2023-11-22T22:32:10;12.20;57.50
83683;DHT22;73663;51.298;5.802;2023-11-22T22:37:11;12.30;57.40
83683;DHT22;73663;51.298;5.802;2023-11-22T22:42:11;12.30;57.50
83683;DHT22;73663;51.298;5.802;2023-11-22T22:47:12;12.30;57.40
83683;DHT22;73663;51.298;5.802;2023-11-22T22:52:12;12.40;57.40
83683;DHT22;73663;51.298;5.802;2023-11-22T22:57:13;12.50;57.40
83683;DHT22;73663;51.298;5.802;2023-11-22T23:02:13;12.50;57.50
83683;DHT22;73663;51.298;5.802;2023-11-22T23:07:20;12.50;57.40
83683;DHT22;73663;51.298;5.802;2023-11-22T23:12:21;12.50;57.50
83683;DHT22;73663;51.298;5.802;2023-11-22T23:17:21;12.50;57.50
83683;DHT22;73663;51.298;5.802;2023-11-22T23:22:22;12.50;57.40
83683;DHT22;73663;51.298;5.802;2023-11-22T23:27:22;12.50;57.50
83683;DHT22;73663;51.298;5.802;2023-11-22T23:32:23;12.50;57.50
83683;DHT22;73663;51.298;5.802;2023-11-22T23:37:26;12.50;57.60
83683;DHT22;73663;51.298;5.802;2023-11-22T23:42:26;12.50;57.60
83683;DHT22;73663;51.298;5.802;2023-11-22T23:47:28;12.60;57.60
83683;DHT22;73663;51.298;5.802;2023-11-22T23:52:28;12.70;57.60
83683;DHT22;73663;51.298;5.802;2023-11-22T23:57:29;12.70;57.60
